createdAt,value
2019-02-23T00:01:20.268Z,1.86
2019-02-23T00:03:48.382Z,1.91
2019-02-23T00:06:16.459Z,1.87
2019-02-23T00:08:44.691Z,1.82
2019-02-23T00:11:12.762Z,1.84
2019-02-23T00:13:40.911Z,1.89
2019-02-23T00:16:09.012Z,1.87
2019-02-23T00:18:37.515Z,1.88
2019-02-23T00:21:05.556Z,1.83
2019-02-23T00:23:33.742Z,1.72
2019-02-23T00:26:01.902Z,1.56
2019-02-23T00:28:30.394Z,1.60
2019-02-23T00:30:58.505Z,1.55
2019-02-23T00:33:26.573Z,1.38
2019-02-23T00:35:54.704Z,1.37
2019-02-23T00:38:22.839Z,1.27
2019-02-23T00:40:50.960Z,1.27
2019-02-23T00:43:19.032Z,1.33
2019-02-23T00:45:47.150Z,1.15
2019-02-23T00:48:15.216Z,1.09
2019-02-23T00:50:43.729Z,1.21
2019-02-23T00:53:11.804Z,1.07
2019-02-23T00:55:39.946Z,0.94
2019-02-23T00:58:09.339Z,0.96
2019-02-23T01:00:37.408Z,1.03
2019-02-23T01:03:05.697Z,0.90
2019-02-23T01:05:33.754Z,1.23
2019-02-23T01:08:02.218Z,1.15
2019-02-23T01:10:30.274Z,1.00
2019-02-23T01:12:58.527Z,1.09
2019-02-23T01:15:26.870Z,0.93
2019-02-23T01:17:54.997Z,0.97
2019-02-23T01:20:23.444Z,0.95
2019-02-23T01:22:51.551Z,0.92
2019-02-23T01:25:19.913Z,0.92
2019-02-23T01:27:48.094Z,0.87
2019-02-23T01:30:16.324Z,0.74
2019-02-23T01:32:44.487Z,0.70
2019-02-23T01:35:12.564Z,0.61
2019-02-23T01:37:40.711Z,0.50
2019-02-23T01:40:10.067Z,0.63
2019-02-23T01:42:39.273Z,0.76
2019-02-23T01:45:11.229Z,0.80
2019-02-23T01:47:39.755Z,0.86
2019-02-23T01:50:08.637Z,0.83
2019-02-23T01:52:36.784Z,0.89
2019-02-23T01:55:07.284Z,0.90
2019-02-23T01:57:35.427Z,0.99
2019-02-23T02:00:06.968Z,0.97
2019-02-23T02:02:35.323Z,1.03
2019-02-23T02:05:04.103Z,1.10
2019-02-23T02:07:32.207Z,1.10
2019-02-23T02:10:00.617Z,1.02
2019-02-23T02:12:29.353Z,0.69
2019-02-23T02:14:59.312Z,0.86
2019-02-23T02:17:27.408Z,1.13
2019-02-23T02:19:56.225Z,1.09
2019-02-23T02:22:24.321Z,0.88
2019-02-23T02:24:52.398Z,0.87
2019-02-23T02:27:20.530Z,0.83
2019-02-23T02:29:48.772Z,1.02
2019-02-23T02:32:17.740Z,1.10
2019-02-23T02:34:45.856Z,1.20
2019-02-23T02:37:14.165Z,1.20
2019-02-23T02:39:42.289Z,1.23
2019-02-23T02:42:10.518Z,1.25
2019-02-23T02:44:40.421Z,1.19
2019-02-23T02:47:08.607Z,1.09
2019-02-23T02:49:36.714Z,1.22
2019-02-23T02:52:04.977Z,1.09
2019-02-23T02:54:33.222Z,0.93
2019-02-23T02:57:01.277Z,0.99
2019-02-23T02:59:29.719Z,1.07
2019-02-23T03:01:58.989Z,1.03
2019-02-23T03:04:27.408Z,1.16
2019-02-23T03:06:55.635Z,1.21
2019-02-23T03:09:23.717Z,1.12
2019-02-23T03:11:51.934Z,0.99
2019-02-23T03:14:20.831Z,1.02
2019-02-23T03:16:49.032Z,1.05
2019-02-23T03:19:17.157Z,0.99
2019-02-23T03:21:45.375Z,1.11
2019-02-23T03:24:13.720Z,1.08
2019-02-23T03:26:41.922Z,1.00
2019-02-23T03:29:09.991Z,1.17
2019-02-23T03:31:38.222Z,1.04
2019-02-23T03:34:06.275Z,1.10
2019-02-23T03:36:34.576Z,0.95
2019-02-23T03:39:04.060Z,0.85
2019-02-23T03:41:32.362Z,0.95
2019-02-23T03:44:00.501Z,1.01
2019-02-23T03:46:28.635Z,1.08
2019-02-23T03:48:56.662Z,0.94
2019-02-23T03:51:24.949Z,1.09
2019-02-23T03:53:53.269Z,0.98
2019-02-23T03:56:21.584Z,1.18
2019-02-23T03:58:49.711Z,1.03
2019-02-23T04:01:17.767Z,1.05
2019-02-23T04:03:45.941Z,0.94
2019-02-23T04:06:13.968Z,0.93
2019-02-23T04:08:42.572Z,0.76
2019-02-23T04:11:10.824Z,0.77
2019-02-23T04:13:39.233Z,0.95
2019-02-23T04:16:07.645Z,0.89
2019-02-23T04:18:35.736Z,0.82
2019-02-23T04:21:03.932Z,0.85
2019-02-23T04:23:32.158Z,0.86
2019-02-23T04:26:00.389Z,0.70
2019-02-23T04:28:28.989Z,0.51
2019-02-23T04:30:57.121Z,0.46
2019-02-23T04:33:25.900Z,0.53
2019-02-23T04:35:54.112Z,0.43
2019-02-23T04:38:22.286Z,0.27
2019-02-23T04:40:51.041Z,0.49
2019-02-23T04:43:19.206Z,0.31
2019-02-23T04:45:47.445Z,0.41
2019-02-23T04:48:15.533Z,0.51
2019-02-23T04:50:44.237Z,0.22
2019-02-23T04:53:12.461Z,0.51
2019-02-23T04:55:40.511Z,0.43
2019-02-23T04:58:09.328Z,0.43
2019-02-23T05:00:37.525Z,0.37
2019-02-23T05:03:06.297Z,0.46
2019-02-23T05:05:34.453Z,0.48
2019-02-23T05:08:02.594Z,0.38
2019-02-23T05:10:30.715Z,0.24
2019-02-23T05:12:58.802Z,0.41
2019-02-23T05:15:27.393Z,0.48
2019-02-23T05:17:55.719Z,0.50
2019-02-23T05:20:23.795Z,0.43
2019-02-23T05:22:52.219Z,0.34
2019-02-23T05:25:20.613Z,0.45
2019-02-23T05:27:50.492Z,0.29
2019-02-23T05:30:18.627Z,0.32
2019-02-23T05:32:47.499Z,0.21
2019-02-23T05:35:15.684Z,0.35
2019-02-23T05:37:43.788Z,0.29
2019-02-23T05:40:12.146Z,0.19
2019-02-23T05:42:40.313Z,0.19
2019-02-23T05:45:09.035Z,0.21
2019-02-23T05:47:37.141Z,0.21
2019-02-23T05:50:05.935Z,0.07
2019-02-23T05:52:34.022Z,0.07
2019-02-23T05:55:02.563Z,0.21
2019-02-23T05:57:30.881Z,0.17
2019-02-23T05:59:59.074Z,0.13
2019-02-23T06:02:27.343Z,0.15
2019-02-23T06:04:55.440Z,0.21
2019-02-23T06:07:24.015Z,0.16
2019-02-23T06:09:52.112Z,0.09
2019-02-23T06:12:21.227Z,0.24
2019-02-23T06:14:53.385Z,0.05
2019-02-23T06:17:21.529Z,0.00
2019-02-23T06:19:50.713Z,-0.08
2019-02-23T06:22:18.830Z,0.03
2019-02-23T06:24:47.550Z,0.03
2019-02-23T06:27:17.482Z,-0.01
2019-02-23T06:29:47.360Z,0.03
2019-02-23T06:32:15.623Z,-0.10
2019-02-23T06:34:45.458Z,-0.09
2019-02-23T06:37:13.663Z,0.02
2019-02-23T06:39:41.846Z,0.02
2019-02-23T06:42:10.004Z,-0.14
2019-02-23T06:44:39.897Z,-0.11
2019-02-23T06:47:08.054Z,0.14
2019-02-23T06:49:36.284Z,0.15
2019-02-23T06:52:04.829Z,0.07
2019-02-23T06:54:33.456Z,-0.06
2019-02-23T06:57:02.085Z,-0.03
2019-02-23T06:59:30.285Z,-0.12
2019-02-23T07:01:58.442Z,-0.24
2019-02-23T07:04:26.652Z,-0.26
2019-02-23T07:06:54.826Z,-0.33
2019-02-23T07:09:22.891Z,-0.10
2019-02-23T07:11:51.084Z,-0.04
2019-02-23T07:14:19.367Z,-0.07
2019-02-23T07:16:47.513Z,0.03
2019-02-23T07:19:15.585Z,-0.30
2019-02-23T07:21:43.926Z,-0.26
2019-02-23T07:24:12.013Z,-0.22
2019-02-23T07:26:40.330Z,-0.14
2019-02-23T07:29:08.551Z,-0.16
2019-02-23T07:31:36.794Z,-0.15
2019-02-23T07:34:04.925Z,-0.18
2019-02-23T07:36:33.061Z,-0.06
2019-02-23T07:39:02.190Z,-0.31
2019-02-23T07:41:30.406Z,0.10
2019-02-23T07:43:58.619Z,-0.01
2019-02-23T07:46:26.768Z,0.17
2019-02-23T07:48:54.968Z,0.08
2019-02-23T07:51:23.136Z,0.11
2019-02-23T07:53:51.292Z,0.24
2019-02-23T07:56:19.665Z,0.38
2019-02-23T07:58:48.129Z,0.10
2019-02-23T08:01:16.623Z,0.43
2019-02-23T08:03:44.787Z,0.33
2019-02-23T08:06:13.151Z,0.50
2019-02-23T08:08:41.303Z,0.61
2019-02-23T08:11:09.688Z,0.58
2019-02-23T08:13:37.819Z,0.67
2019-02-23T08:16:06.302Z,0.98
2019-02-23T08:18:34.791Z,0.91
2019-02-23T08:21:03.115Z,0.99
2019-02-23T08:23:31.621Z,1.08
2019-02-23T08:26:00.011Z,1.24
2019-02-23T08:28:28.166Z,1.42
2019-02-23T08:30:56.348Z,1.41
2019-02-23T08:33:24.502Z,1.33
2019-02-23T08:35:52.765Z,1.21
2019-02-23T08:38:20.822Z,1.60
2019-02-23T08:40:50.849Z,1.84
2019-02-23T08:43:20.800Z,1.58
2019-02-23T08:45:50.841Z,1.64
2019-02-23T08:48:18.935Z,1.36
2019-02-23T08:50:48.136Z,1.65
2019-02-23T08:53:16.280Z,1.72
2019-02-23T08:55:44.392Z,1.97
2019-02-23T08:58:12.777Z,2.03
2019-02-23T09:00:41.002Z,1.99
2019-02-23T09:03:09.262Z,2.02
2019-02-23T09:05:38.194Z,2.10
2019-02-23T09:08:06.413Z,2.25
2019-02-23T09:10:34.599Z,2.42
2019-02-23T09:13:02.962Z,2.57
2019-02-23T09:15:37.958Z,2.52
2019-02-23T09:18:06.121Z,2.52
2019-02-23T09:20:34.664Z,2.60
2019-02-23T09:23:02.892Z,2.56
2019-02-23T09:25:31.479Z,2.89
2019-02-23T09:28:00.433Z,3.05
2019-02-23T09:30:30.171Z,3.03
2019-02-23T09:32:58.375Z,3.03
2019-02-23T09:35:26.897Z,2.94
2019-02-23T09:37:54.985Z,3.15
2019-02-23T09:40:23.061Z,3.10
2019-02-23T09:42:51.339Z,3.22
2019-02-23T09:45:19.568Z,3.34
2019-02-23T09:47:47.829Z,3.41
2019-02-23T09:50:16.030Z,3.30
2019-02-23T09:52:44.955Z,3.19
2019-02-23T09:55:13.292Z,3.34
2019-02-23T09:57:41.370Z,3.22
2019-02-23T10:00:10.243Z,3.46
2019-02-23T10:02:38.434Z,3.42
2019-02-23T10:05:07.057Z,3.78
2019-02-23T10:07:35.331Z,3.73
2019-02-23T10:10:03.623Z,3.77
2019-02-23T10:12:32.332Z,3.91
2019-02-23T10:15:00.463Z,3.78
2019-02-23T10:17:28.558Z,4.00
2019-02-23T10:19:56.713Z,4.24
2019-02-23T10:22:24.837Z,4.61
2019-02-23T10:24:53.015Z,4.18
2019-02-23T10:27:21.122Z,4.27
2019-02-23T10:29:49.198Z,4.41
2019-02-23T10:32:17.323Z,4.74
2019-02-23T10:34:46.017Z,5.15
2019-02-23T10:37:14.107Z,4.62
2019-02-23T10:39:42.868Z,4.78
2019-02-23T10:42:11.031Z,4.62
2019-02-23T10:44:39.348Z,5.07
2019-02-23T10:47:07.669Z,4.78
2019-02-23T10:49:37.079Z,4.81
2019-02-23T10:52:05.227Z,4.86
2019-02-23T10:54:34.869Z,5.00
2019-02-23T10:57:03.464Z,5.20
2019-02-23T10:59:32.300Z,5.17
2019-02-23T11:02:00.676Z,4.93
2019-02-23T11:04:28.827Z,5.01
2019-02-23T11:06:57.460Z,5.17
2019-02-23T11:09:33.118Z,5.16
2019-02-23T11:12:01.601Z,5.12
2019-02-23T11:14:29.796Z,5.30
2019-02-23T11:16:58.396Z,5.40
2019-02-23T11:19:26.651Z,5.36
2019-02-23T11:21:55.183Z,5.62
2019-02-23T11:24:23.452Z,5.88
2019-02-23T11:26:51.545Z,6.05
2019-02-23T11:29:19.860Z,5.85
2019-02-23T11:31:48.058Z,5.82
2019-02-23T11:34:16.456Z,5.89
2019-02-23T11:36:44.511Z,6.02
2019-02-23T11:39:13.008Z,5.64
2019-02-23T11:41:41.309Z,5.87
2019-02-23T11:44:09.867Z,5.81
2019-02-23T11:46:38.317Z,6.09
2019-02-23T11:49:08.200Z,6.00
2019-02-23T11:51:36.749Z,5.73
2019-02-23T11:54:04.835Z,5.96
2019-02-23T11:56:33.243Z,6.12
2019-02-23T11:59:01.357Z,6.06
2019-02-23T12:01:29.694Z,6.14
2019-02-23T12:03:57.723Z,6.23
2019-02-23T12:06:25.786Z,6.42
2019-02-23T12:08:53.968Z,6.65
2019-02-23T12:11:22.450Z,6.61
2019-02-23T12:13:51.447Z,6.64
2019-02-23T12:16:19.644Z,6.68
2019-02-23T12:18:47.721Z,6.71
2019-02-23T12:21:16.363Z,6.65
2019-02-23T12:23:44.474Z,6.68
2019-02-23T12:26:12.547Z,6.96
2019-02-23T12:28:40.677Z,6.81
2019-02-23T12:31:09.224Z,6.77
2019-02-23T12:33:37.403Z,6.93
2019-02-23T12:36:05.513Z,7.05
2019-02-23T12:38:33.923Z,7.15
2019-02-23T12:41:02.050Z,7.42
2019-02-23T12:43:30.558Z,7.52
2019-02-23T12:45:58.809Z,7.39
2019-02-23T12:48:27.160Z,7.26
2019-02-23T12:50:55.470Z,7.24
2019-02-23T12:53:23.986Z,7.12
2019-02-23T12:55:52.559Z,7.30
2019-02-23T12:58:22.916Z,7.38
2019-02-23T13:00:51.492Z,7.26
2019-02-23T13:03:20.188Z,7.44
2019-02-23T13:05:48.324Z,7.49
2019-02-23T13:08:16.780Z,7.44
2019-02-23T13:10:45.402Z,7.53
2019-02-23T13:14:19.990Z,7.50
2019-02-23T13:17:44.474Z,7.73
2019-02-23T13:21:20.774Z,7.96
2019-02-23T13:25:15.704Z,7.74
2019-02-23T13:28:35.000Z,7.70
2019-02-23T13:32:00.791Z,7.70
2019-02-23T13:35:02.414Z,7.74
2019-02-23T13:38:01.927Z,7.81
2019-02-23T13:41:28.369Z,8.10
2019-02-23T13:44:37.636Z,8.16
2019-02-23T13:47:40.940Z,8.00
2019-02-23T13:51:11.167Z,8.00
2019-02-23T13:54:38.316Z,7.99
2019-02-23T13:57:30.162Z,8.27
2019-02-23T14:00:39.455Z,8.14
2019-02-23T14:04:00.876Z,8.20
2019-02-23T14:07:31.984Z,8.27
2019-02-23T14:11:03.893Z,8.33
2019-02-23T14:14:02.126Z,8.44
2019-02-23T14:17:44.667Z,8.46
2019-02-23T14:20:51.139Z,8.47
2019-02-23T14:24:05.649Z,8.42
2019-02-23T14:27:19.243Z,8.60
2019-02-23T14:30:31.971Z,8.61
2019-02-23T14:34:03.084Z,8.50
2019-02-23T14:37:42.363Z,8.70
2019-02-23T14:40:54.259Z,8.66
2019-02-23T14:44:12.478Z,8.72
2019-02-23T14:47:42.485Z,8.72
2019-02-23T14:51:12.756Z,8.74
2019-02-23T14:54:45.177Z,8.84
2019-02-23T14:58:20.901Z,8.68
2019-02-23T15:01:33.782Z,8.80
2019-02-23T15:04:54.556Z,8.67
2019-02-23T15:08:12.746Z,8.64
2019-02-23T15:11:49.898Z,8.79
2019-02-23T15:15:08.884Z,8.75
2019-02-23T15:18:22.231Z,8.87
2019-02-23T15:21:41.453Z,8.90
2019-02-23T15:25:13.250Z,9.00
2019-02-23T15:28:37.469Z,9.03
2019-02-23T15:31:20.553Z,8.95
2019-02-23T15:34:50.926Z,8.92
2019-02-23T15:37:57.906Z,8.83
2019-02-23T15:41:27.909Z,8.79
2019-02-23T15:44:27.130Z,8.80
2019-02-23T15:47:55.951Z,8.76
2019-02-23T15:50:24.225Z,8.75
2019-02-23T15:52:52.487Z,8.72
2019-02-23T15:55:26.032Z,8.75
2019-02-23T15:57:51.388Z,8.76
2019-02-23T16:00:19.559Z,8.62
2019-02-23T16:02:48.335Z,8.67
2019-02-23T16:05:16.635Z,8.70
2019-02-23T16:07:44.847Z,8.80
2019-02-23T16:10:13.422Z,8.81
2019-02-23T16:12:41.646Z,8.87
2019-02-23T16:15:09.923Z,8.65
2019-02-23T16:17:38.478Z,8.57
2019-02-23T16:20:07.800Z,8.34
2019-02-23T16:22:35.899Z,8.19
2019-02-23T16:25:04.191Z,8.12
2019-02-23T16:27:32.484Z,8.07
2019-02-23T16:30:01.335Z,8.06
2019-02-23T16:32:29.649Z,7.90
2019-02-23T16:34:57.756Z,7.79
2019-02-23T16:37:25.845Z,7.78
2019-02-23T16:39:53.961Z,7.76
2019-02-23T16:42:23.092Z,7.71
2019-02-23T16:44:51.609Z,7.58
2019-02-23T16:47:19.990Z,7.55
2019-02-23T16:49:48.405Z,7.49
2019-02-23T16:52:17.223Z,7.38
2019-02-23T16:54:45.356Z,7.31
2019-02-23T16:57:13.564Z,7.39
2019-02-23T16:59:41.653Z,7.30
2019-02-23T17:02:10.057Z,7.26
2019-02-23T17:04:38.317Z,7.26
2019-02-23T17:07:06.848Z,7.13
2019-02-23T17:09:34.976Z,7.11
2019-02-23T17:12:03.027Z,7.23
2019-02-23T17:14:31.171Z,7.07
2019-02-23T17:16:59.770Z,7.07
2019-02-23T17:19:27.900Z,7.04
2019-02-23T17:21:56.030Z,6.85
2019-02-23T17:24:24.584Z,6.85
2019-02-23T17:26:52.893Z,6.82
2019-02-23T17:29:20.973Z,6.82
2019-02-23T17:31:49.203Z,6.76
2019-02-23T17:34:17.478Z,6.76
2019-02-23T17:36:46.422Z,6.68
2019-02-23T17:39:14.499Z,6.88
2019-02-23T17:41:42.943Z,6.76
2019-02-23T17:44:11.399Z,6.69
2019-02-23T17:46:39.471Z,6.58
2019-02-23T17:49:07.571Z,6.50
2019-02-23T17:51:37.304Z,6.43
2019-02-23T17:54:07.350Z,6.54
2019-02-23T17:56:35.488Z,6.38
2019-02-23T17:59:04.223Z,6.47
2019-02-23T18:01:32.392Z,6.36
2019-02-23T18:04:01.220Z,6.50
2019-02-23T18:06:31.287Z,6.42
2019-02-23T18:09:01.150Z,6.32
2019-02-23T18:11:29.786Z,6.24
2019-02-23T18:13:58.081Z,6.17
2019-02-23T18:16:26.317Z,6.02
2019-02-23T18:18:54.449Z,6.02
2019-02-23T18:21:22.989Z,6.02
2019-02-23T18:23:51.263Z,5.98
2019-02-23T18:26:21.177Z,6.02
2019-02-23T18:28:50.096Z,5.83
2019-02-23T18:31:18.584Z,5.75
2019-02-23T18:33:46.851Z,5.75
2019-02-23T18:36:15.200Z,5.71
2019-02-23T18:38:43.408Z,5.60
2019-02-23T18:41:11.476Z,5.53
2019-02-23T18:43:40.027Z,5.51
2019-02-23T18:46:08.309Z,5.49
2019-02-23T18:48:37.018Z,5.45
2019-02-23T18:51:05.388Z,5.46
2019-02-23T18:53:33.561Z,5.44
2019-02-23T18:56:02.647Z,5.52
2019-02-23T18:58:31.242Z,5.55
2019-02-23T19:00:59.708Z,5.49
2019-02-23T19:03:28.157Z,5.49
2019-02-23T19:05:56.261Z,5.45
2019-02-23T19:08:24.545Z,5.49
2019-02-23T19:11:01.515Z,5.40
2019-02-23T19:13:29.583Z,5.31
2019-02-23T19:15:58.199Z,5.38
2019-02-23T19:18:26.316Z,5.41
2019-02-23T19:20:54.552Z,5.49
2019-02-23T19:23:22.625Z,5.15
2019-02-23T19:25:50.777Z,5.09
2019-02-23T19:28:18.863Z,5.24
2019-02-23T19:30:47.693Z,5.07
2019-02-23T19:33:16.192Z,4.92
2019-02-23T19:35:44.306Z,4.86
2019-02-23T19:38:12.429Z,4.72
2019-02-23T19:40:40.629Z,4.68
2019-02-23T19:43:08.765Z,4.65
2019-02-23T19:45:36.897Z,4.56
2019-02-23T19:48:05.458Z,4.49
2019-02-23T19:50:38.929Z,4.47
2019-02-23T19:53:07.043Z,4.43
2019-02-23T19:55:35.153Z,4.46
2019-02-23T19:58:03.464Z,4.40
2019-02-23T20:00:31.578Z,4.44
2019-02-23T20:02:59.672Z,4.37
2019-02-23T20:05:27.779Z,4.50
2019-02-23T20:07:56.763Z,4.29
2019-02-23T20:10:25.154Z,4.10
2019-02-23T20:12:53.432Z,4.07
2019-02-23T20:15:21.563Z,4.08
2019-02-23T20:17:49.712Z,4.02
2019-02-23T20:20:18.599Z,4.11
2019-02-23T20:22:46.748Z,4.08
2019-02-23T20:25:15.801Z,4.19
2019-02-23T20:27:44.014Z,4.12
2019-02-23T20:30:12.367Z,4.05
2019-02-23T20:32:40.965Z,3.95
2019-02-23T20:35:09.439Z,4.05
2019-02-23T20:37:37.550Z,4.11
2019-02-23T20:40:06.499Z,4.04
2019-02-23T20:42:34.852Z,3.99
2019-02-23T20:45:21.892Z,3.96
2019-02-23T20:47:51.299Z,3.80
2019-02-23T20:50:19.497Z,3.63
2019-02-23T20:52:47.623Z,3.71
2019-02-23T20:55:16.629Z,3.66
2019-02-23T20:57:44.869Z,3.57
2019-02-23T21:00:13.040Z,3.64
2019-02-23T21:02:41.292Z,3.64
2019-02-23T21:05:09.636Z,3.44
2019-02-23T21:07:38.000Z,3.31
2019-02-23T21:10:06.786Z,3.32
2019-02-23T21:12:34.941Z,3.35
2019-02-23T21:15:06.101Z,3.32
2019-02-23T21:17:34.178Z,3.40
2019-02-23T21:20:02.721Z,3.23
2019-02-23T21:22:30.819Z,3.35
2019-02-23T21:24:59.366Z,3.45
2019-02-23T21:27:27.530Z,3.28
2019-02-23T21:29:55.900Z,3.36
2019-02-23T21:32:24.090Z,3.42
2019-02-23T21:34:53.071Z,3.21
2019-02-23T21:37:22.209Z,3.10
2019-02-23T21:39:50.618Z,3.21
2019-02-23T21:42:19.074Z,3.04
2019-02-23T21:44:47.233Z,2.87
2019-02-23T21:47:15.309Z,2.96
2019-02-23T21:49:43.483Z,3.14
2019-02-23T21:52:11.582Z,2.97
2019-02-23T21:54:39.633Z,3.05
2019-02-23T21:57:07.761Z,2.99
2019-02-23T21:59:36.133Z,2.98
2019-02-23T22:02:04.384Z,3.09
2019-02-23T22:04:32.502Z,2.88
2019-02-23T22:07:00.588Z,2.86
2019-02-23T22:09:28.801Z,2.80
2019-02-23T22:11:57.054Z,2.81
2019-02-23T22:14:25.241Z,2.85
2019-02-23T22:16:53.339Z,2.71
2019-02-23T22:19:21.422Z,2.79
2019-02-23T22:21:51.199Z,2.66
2019-02-23T22:24:19.422Z,2.76
2019-02-23T22:26:47.844Z,2.79
2019-02-23T22:29:15.931Z,2.67
2019-02-23T22:31:44.914Z,2.78
2019-02-23T22:34:13.071Z,2.73
2019-02-23T22:36:41.233Z,2.71
2019-02-23T22:39:09.589Z,2.68
2019-02-23T22:41:37.670Z,2.82
2019-02-23T22:44:05.772Z,2.67
2019-02-23T22:46:33.883Z,2.71
2019-02-23T22:49:01.965Z,2.65
2019-02-23T22:51:30.127Z,2.65
2019-02-23T22:53:58.185Z,2.66
2019-02-23T22:56:26.284Z,2.71
2019-02-23T22:58:54.394Z,2.64
2019-02-23T23:01:22.733Z,2.67
2019-02-23T23:03:50.871Z,2.58
2019-02-23T23:06:18.950Z,2.63
2019-02-23T23:08:47.074Z,2.69
2019-02-23T23:11:16.953Z,2.64
2019-02-23T23:13:45.079Z,2.60
2019-02-23T23:16:13.233Z,2.79
2019-02-23T23:18:41.378Z,2.79
2019-02-23T23:21:09.445Z,2.77
2019-02-23T23:23:37.574Z,2.85
2019-02-23T23:26:06.568Z,2.73
2019-02-23T23:28:34.738Z,2.74
2019-02-23T23:31:02.776Z,2.64
2019-02-23T23:33:31.007Z,2.61
2019-02-23T23:35:59.174Z,2.67
2019-02-23T23:38:27.307Z,2.58
2019-02-23T23:40:55.491Z,2.71
2019-02-23T23:43:23.604Z,2.52
2019-02-23T23:45:51.691Z,2.67
2019-02-23T23:48:20.038Z,2.77
2019-02-23T23:50:48.148Z,2.83
2019-02-23T23:53:16.313Z,2.71
2019-02-23T23:55:44.517Z,2.76
2019-02-23T23:58:12.607Z,2.55
